<?xml version="1.0" encoding="UTF-8" standalone="no" ?>
<gpx xmlns="http://www.topografix.com/GPX/1/1" xmlns:xsi="http://www.w3.org/2001/XMLSchema-instance" xsi:schemaLocation="http://www.topografix.com/GPX/1/1 http://www.topografix.com/GPX/1/1/gpx.xsd" version="1.1" creator="VisuGPX - https://www.visugpx.com">
  <metadata>
    <name>CDLP Saint Raphaël version 2</name>
    <desc><![CDATA[CDLP Saint Raphaël version 2 HW]]></desc>
  </metadata>
  <trk>
    <name><![CDATA[CURRENT TRACK- 15 AOU 2019 SAINT RAPHAEL]]></name>
    <extensions>
      <line xmlns="http://www.topografix.com/GPX/gpx_style/0/2">
        <color>0000FF</color>
        <width>4</width>
      </line>
    </extensions>
    <trkseg>
      <trkpt lat="43.28165" lon="6.58734">
        <ele>2</ele>
        <time>2019-08-16T07:03:12Z</time>
      </trkpt>
      <trkpt lat="43.28165" lon="6.58734">
        <ele>2</ele>
        <time>2019-08-16T07:03:12Z</time>
      </trkpt>
      <trkpt lat="43.28198" lon="6.58617">
        <ele>5</ele>
        <time>2019-08-16T07:03:57Z</time>
      </trkpt>
      <trkpt lat="43.28258" lon="6.58801">
        <ele>5</ele>
        <time>2019-08-16T07:04:48Z</time>
      </trkpt>
      <trkpt lat="43.28309" lon="6.58991">
        <ele>4</ele>
        <time>2019-08-16T07:05:36Z</time>
      </trkpt>
      <trkpt lat="43.28361" lon="6.59182">
        <ele>4</ele>
        <time>2019-08-16T07:06:10Z</time>
      </trkpt>
      <trkpt lat="43.28397" lon="6.59309">
        <ele>3</ele>
        <time>2019-08-16T07:06:33Z</time>
      </trkpt>
      <trkpt lat="43.28451" lon="6.59494">
        <ele>4</ele>
        <time>2019-08-16T07:07:11Z</time>
      </trkpt>
      <trkpt lat="43.28496" lon="6.59679">
        <ele>6</ele>
        <time>2019-08-16T07:07:42Z</time>
      </trkpt>
      <trkpt lat="43.28547" lon="6.59861">
        <ele>10</ele>
        <time>2019-08-16T07:08:18Z</time>
      </trkpt>
      <trkpt lat="43.28621" lon="6.60027">
        <ele>9</ele>
        <time>2019-08-16T07:08:51Z</time>
      </trkpt>
      <trkpt lat="43.28711" lon="6.60178">
        <ele>8</ele>
        <time>2019-08-16T07:09:24Z</time>
      </trkpt>
      <trkpt lat="43.28769" lon="6.6028">
        <ele>8</ele>
        <time>2019-08-16T07:09:48Z</time>
      </trkpt>
      <trkpt lat="43.28865" lon="6.60429">
        <ele>8</ele>
        <time>2019-08-16T07:10:16Z</time>
      </trkpt>
      <trkpt lat="43.28963" lon="6.60581">
        <ele>6</ele>
        <time>2019-08-16T07:10:43Z</time>
      </trkpt>
      <trkpt lat="43.29008" lon="6.60763">
        <ele>3</ele>
        <time>2019-08-16T07:11:10Z</time>
      </trkpt>
      <trkpt lat="43.29079" lon="6.60925">
        <ele>2</ele>
        <time>2019-08-16T07:11:39Z</time>
      </trkpt>
      <trkpt lat="43.29143" lon="6.61015">
        <ele>2</ele>
        <time>2019-08-16T07:11:58Z</time>
      </trkpt>
      <trkpt lat="43.29191" lon="6.61202">
        <ele>1</ele>
        <time>2019-08-16T07:12:28Z</time>
      </trkpt>
      <trkpt lat="43.29274" lon="6.61355">
        <ele>2</ele>
        <time>2019-08-16T07:13:05Z</time>
      </trkpt>
      <trkpt lat="43.29384" lon="6.61472">
        <ele>2</ele>
        <time>2019-08-16T07:13:40Z</time>
      </trkpt>
      <trkpt lat="43.29476" lon="6.61626">
        <ele>4</ele>
        <time>2019-08-16T07:14:13Z</time>
      </trkpt>
      <trkpt lat="43.29529" lon="6.61732">
        <ele>4</ele>
        <time>2019-08-16T07:14:36Z</time>
      </trkpt>
      <trkpt lat="43.29578" lon="6.61914">
        <ele>2</ele>
        <time>2019-08-16T07:15:10Z</time>
      </trkpt>
      <trkpt lat="43.29654" lon="6.62087">
        <ele>2</ele>
        <time>2019-08-16T07:15:37Z</time>
      </trkpt>
      <trkpt lat="43.29659" lon="6.6227">
        <ele>6</ele>
        <time>2019-08-16T07:16:13Z</time>
      </trkpt>
      <trkpt lat="43.29681" lon="6.62455">
        <ele>5</ele>
        <time>2019-08-16T07:16:48Z</time>
      </trkpt>
      <trkpt lat="43.29768" lon="6.62501">
        <ele>5</ele>
        <time>2019-08-16T07:17:08Z</time>
      </trkpt>
      <trkpt lat="43.29911" lon="6.62545">
        <ele>2</ele>
        <time>2019-08-16T07:17:37Z</time>
      </trkpt>
      <trkpt lat="43.30049" lon="6.62577">
        <ele>1</ele>
        <time>2019-08-16T07:18:13Z</time>
      </trkpt>
      <trkpt lat="43.30184" lon="6.62632">
        <ele>1</ele>
        <time>2019-08-16T07:18:56Z</time>
      </trkpt>
      <trkpt lat="43.30312" lon="6.62707">
        <ele>6.5</ele>
        <time>2019-08-16T07:19:27Z</time>
      </trkpt>
      <trkpt lat="43.30425" lon="6.62818">
        <ele>1</ele>
        <time>2019-08-16T07:20:01Z</time>
      </trkpt>
      <trkpt lat="43.30489" lon="6.62915">
        <ele>2</ele>
        <time>2019-08-16T07:20:25Z</time>
      </trkpt>
      <trkpt lat="43.30517" lon="6.63105">
        <ele>6</ele>
        <time>2019-08-16T07:21:04Z</time>
      </trkpt>
      <trkpt lat="43.30597" lon="6.6326">
        <ele>2</ele>
        <time>2019-08-16T07:21:33Z</time>
      </trkpt>
      <trkpt lat="43.30707" lon="6.6338">
        <ele>5.1</ele>
        <time>2019-08-16T07:22:00Z</time>
      </trkpt>
      <trkpt lat="43.30811" lon="6.63563">
        <ele>6.3</ele>
      </trkpt>
      <trkpt lat="43.30884" lon="6.63448">
        <ele>7.3</ele>
      </trkpt>
      <trkpt lat="43.30946" lon="6.6353">
        <ele>7</ele>
      </trkpt>
      <trkpt lat="43.30942" lon="6.63614">
        <ele>6.9</ele>
      </trkpt>
      <trkpt lat="43.31039" lon="6.63573">
        <ele>7</ele>
      </trkpt>
      <trkpt lat="43.31098" lon="6.63609">
        <ele>6</ele>
        <time>2019-08-16T07:26:18Z</time>
      </trkpt>
      <trkpt lat="43.31151" lon="6.63654">
        <ele>7</ele>
      </trkpt>
      <trkpt lat="43.31224" lon="6.63617">
        <ele>8</ele>
        <time>2019-08-16T07:26:55Z</time>
      </trkpt>
      <trkpt lat="43.31353" lon="6.63548">
        <ele>9</ele>
        <time>2019-08-16T07:27:36Z</time>
      </trkpt>
      <trkpt lat="43.31417" lon="6.63511">
        <ele>15.2</ele>
      </trkpt>
      <trkpt lat="43.31514" lon="6.63526">
        <ele>18</ele>
      </trkpt>
      <trkpt lat="43.31556" lon="6.63531">
        <ele>17.7</ele>
      </trkpt>
      <trkpt lat="43.31595" lon="6.63544">
        <ele>18.8</ele>
      </trkpt>
      <trkpt lat="43.31606" lon="6.63532">
        <ele>18.5</ele>
      </trkpt>
      <trkpt lat="43.31597" lon="6.6351">
        <ele>16.9</ele>
      </trkpt>
      <trkpt lat="43.31579" lon="6.63468">
        <ele>10</ele>
        <time>2019-08-16T07:36:52Z</time>
      </trkpt>
      <trkpt lat="43.31589" lon="6.63361">
        <ele>9</ele>
        <time>2019-08-16T07:37:12Z</time>
      </trkpt>
      <trkpt lat="43.31704" lon="6.63226">
        <ele>9</ele>
        <time>2019-08-16T07:37:41Z</time>
      </trkpt>
      <trkpt lat="43.3174" lon="6.63181">
        <ele>9</ele>
      </trkpt>
      <trkpt lat="43.31831" lon="6.63217">
        <ele>18</ele>
        <time>2019-08-16T07:38:38Z</time>
      </trkpt>
      <trkpt lat="43.31963" lon="6.63234">
        <ele>26</ele>
        <time>2019-08-16T07:39:35Z</time>
      </trkpt>
      <trkpt lat="43.32017" lon="6.63254">
        <ele>32</ele>
      </trkpt>
      <trkpt lat="43.32059" lon="6.6323">
        <ele>33</ele>
      </trkpt>
      <trkpt lat="43.32083" lon="6.6328">
        <ele>35</ele>
        <time>2019-08-16T07:40:39Z</time>
      </trkpt>
      <trkpt lat="43.32146" lon="6.63382">
        <ele>38</ele>
        <time>2019-08-16T07:41:17Z</time>
      </trkpt>
      <trkpt lat="43.32257" lon="6.63481">
        <ele>41</ele>
        <time>2019-08-16T07:41:54Z</time>
      </trkpt>
      <trkpt lat="43.3239" lon="6.63547">
        <ele>48</ele>
        <time>2019-08-16T07:42:56Z</time>
      </trkpt>
      <trkpt lat="43.32507" lon="6.63689">
        <ele>62</ele>
        <time>2019-08-16T07:44:07Z</time>
      </trkpt>
      <trkpt lat="43.32635" lon="6.63756">
        <ele>54</ele>
        <time>2019-08-16T07:44:39Z</time>
      </trkpt>
      <trkpt lat="43.32728" lon="6.63766">
        <ele>52</ele>
        <time>2019-08-16T07:44:55Z</time>
      </trkpt>
      <trkpt lat="43.32865" lon="6.63776">
        <ele>54</ele>
        <time>2019-08-16T07:45:41Z</time>
      </trkpt>
      <trkpt lat="43.33005" lon="6.63791">
        <ele>56</ele>
        <time>2019-08-16T07:46:20Z</time>
      </trkpt>
      <trkpt lat="43.33141" lon="6.63758">
        <ele>62</ele>
        <time>2019-08-16T07:47:00Z</time>
      </trkpt>
      <trkpt lat="43.33258" lon="6.63664">
        <ele>65</ele>
        <time>2019-08-16T07:47:53Z</time>
      </trkpt>
      <trkpt lat="43.33344" lon="6.63652">
        <ele>76</ele>
        <time>2019-08-16T07:48:34Z</time>
      </trkpt>
      <trkpt lat="43.33478" lon="6.6371">
        <ele>85</ele>
        <time>2019-08-16T07:49:36Z</time>
      </trkpt>
      <trkpt lat="43.33616" lon="6.63745">
        <ele>100</ele>
        <time>2019-08-16T07:50:48Z</time>
      </trkpt>
      <trkpt lat="43.33739" lon="6.63831">
        <ele>117</ele>
        <time>2019-08-16T07:52:09Z</time>
      </trkpt>
      <trkpt lat="43.3387" lon="6.638">
        <ele>134</ele>
        <time>2019-08-16T07:53:45Z</time>
      </trkpt>
      <trkpt lat="43.34007" lon="6.63813">
        <ele>154</ele>
        <time>2019-08-16T07:59:10Z</time>
      </trkpt>
      <trkpt lat="43.341" lon="6.63824">
        <ele>168</ele>
        <time>2019-08-16T08:00:17Z</time>
      </trkpt>
      <trkpt lat="43.34217" lon="6.63885">
        <ele>190</ele>
        <time>2019-08-16T08:02:00Z</time>
      </trkpt>
      <trkpt lat="43.34346" lon="6.63878">
        <ele>190</ele>
        <time>2019-08-16T08:05:24Z</time>
      </trkpt>
      <trkpt lat="43.34364" lon="6.63705">
        <ele>206</ele>
        <time>2019-08-16T08:06:34Z</time>
      </trkpt>
      <trkpt lat="43.34414" lon="6.63547">
        <ele>216</ele>
        <time>2019-08-16T08:07:49Z</time>
      </trkpt>
      <trkpt lat="43.34498" lon="6.63495">
        <ele>218</ele>
        <time>2019-08-16T08:08:43Z</time>
      </trkpt>
      <trkpt lat="43.34558" lon="6.63341">
        <ele>223</ele>
        <time>2019-08-16T08:10:01Z</time>
      </trkpt>
      <trkpt lat="43.345" lon="6.63165">
        <ele>236</ele>
        <time>2019-08-16T08:11:18Z</time>
      </trkpt>
      <trkpt lat="43.34457" lon="6.62979">
        <ele>266</ele>
        <time>2019-08-16T08:12:42Z</time>
      </trkpt>
      <trkpt lat="43.34502" lon="6.62878">
        <ele>269</ele>
        <time>2019-08-16T08:15:35Z</time>
      </trkpt>
      <trkpt lat="43.34471" lon="6.62763">
        <ele>287</ele>
        <time>2019-08-16T08:16:22Z</time>
      </trkpt>
      <trkpt lat="43.34527" lon="6.62631">
        <ele>264</ele>
        <time>2019-08-16T08:17:23Z</time>
      </trkpt>
      <trkpt lat="43.34464" lon="6.62471">
        <ele>268</ele>
        <time>2019-08-16T08:18:23Z</time>
      </trkpt>
      <trkpt lat="43.34549" lon="6.62339">
        <ele>270</ele>
        <time>2019-08-16T08:19:21Z</time>
      </trkpt>
      <trkpt lat="43.34696" lon="6.6234">
        <ele>269</ele>
        <time>2019-08-16T08:20:00Z</time>
      </trkpt>
      <trkpt lat="43.34792" lon="6.62339">
        <ele>266</ele>
        <time>2019-08-16T08:20:20Z</time>
      </trkpt>
      <trkpt lat="43.34929" lon="6.62324">
        <ele>282</ele>
        <time>2019-08-16T08:21:20Z</time>
      </trkpt>
      <trkpt lat="43.35041" lon="6.62431">
        <ele>283</ele>
        <time>2019-08-16T08:22:25Z</time>
      </trkpt>
      <trkpt lat="43.35068" lon="6.62271">
        <ele>294</ele>
        <time>2019-08-16T08:23:29Z</time>
      </trkpt>
      <trkpt lat="43.35087" lon="6.62093">
        <ele>300</ele>
        <time>2019-08-16T08:24:35Z</time>
      </trkpt>
      <trkpt lat="43.35172" lon="6.61945">
        <ele>308</ele>
        <time>2019-08-16T08:26:00Z</time>
      </trkpt>
      <trkpt lat="43.35247" lon="6.61864">
        <ele>311</ele>
        <time>2019-08-16T08:27:01Z</time>
      </trkpt>
      <trkpt lat="43.35331" lon="6.61711">
        <ele>316</ele>
        <time>2019-08-16T08:31:10Z</time>
      </trkpt>
      <trkpt lat="43.35406" lon="6.61556">
        <ele>317</ele>
        <time>2019-08-16T08:31:49Z</time>
      </trkpt>
      <trkpt lat="43.35509" lon="6.61439">
        <ele>301</ele>
        <time>2019-08-16T08:32:18Z</time>
      </trkpt>
      <trkpt lat="43.35606" lon="6.61297">
        <ele>294</ele>
        <time>2019-08-16T08:32:43Z</time>
      </trkpt>
      <trkpt lat="43.35692" lon="6.61258">
        <ele>288</ele>
        <time>2019-08-16T08:33:06Z</time>
      </trkpt>
      <trkpt lat="43.35742" lon="6.61122">
        <ele>280</ele>
        <time>2019-08-16T08:33:35Z</time>
      </trkpt>
      <trkpt lat="43.35826" lon="6.60967">
        <ele>269</ele>
        <time>2019-08-16T08:34:02Z</time>
      </trkpt>
      <trkpt lat="43.35934" lon="6.60852">
        <ele>255</ele>
        <time>2019-08-16T08:34:29Z</time>
      </trkpt>
      <trkpt lat="43.36062" lon="6.60807">
        <ele>257</ele>
        <time>2019-08-16T08:35:09Z</time>
      </trkpt>
      <trkpt lat="43.36133" lon="6.60731">
        <ele>272</ele>
        <time>2019-08-16T08:36:16Z</time>
      </trkpt>
      <trkpt lat="43.36242" lon="6.6077">
        <ele>277</ele>
        <time>2019-08-16T08:37:27Z</time>
      </trkpt>
      <trkpt lat="43.36306" lon="6.60673">
        <ele>266</ele>
      </trkpt>
      <trkpt lat="43.36343" lon="6.60676">
        <ele>273</ele>
        <time>2019-08-16T08:37:54Z</time>
      </trkpt>
      <trkpt lat="43.36444" lon="6.60557">
        <ele>261</ele>
        <time>2019-08-16T08:38:26Z</time>
      </trkpt>
      <trkpt lat="43.36474" lon="6.60499">
        <ele>249.2</ele>
      </trkpt>
      <trkpt lat="43.36519" lon="6.60478">
        <ele>257</ele>
      </trkpt>
      <trkpt lat="43.36563" lon="6.605">
        <ele>272</ele>
        <time>2019-08-16T08:39:27Z</time>
      </trkpt>
      <trkpt lat="43.36658" lon="6.60466">
        <ele>271.4</ele>
      </trkpt>
      <trkpt lat="43.36531" lon="6.60583">
        <ele>290</ele>
        <time>2019-08-16T08:42:35Z</time>
      </trkpt>
      <trkpt lat="43.36457" lon="6.60729">
        <ele>304</ele>
        <time>2019-08-16T08:44:11Z</time>
      </trkpt>
      <trkpt lat="43.36382" lon="6.60862">
        <ele>325</ele>
        <time>2019-08-16T08:45:58Z</time>
      </trkpt>
      <trkpt lat="43.36329" lon="6.61012">
        <ele>331</ele>
        <time>2019-08-16T08:47:25Z</time>
      </trkpt>
      <trkpt lat="43.36415" lon="6.61157">
        <ele>342</ele>
        <time>2019-08-16T08:48:33Z</time>
      </trkpt>
      <trkpt lat="43.3643" lon="6.61279">
        <ele>357</ele>
        <time>2019-08-16T08:49:27Z</time>
      </trkpt>
      <trkpt lat="43.3639" lon="6.61424">
        <ele>359</ele>
        <time>2019-08-16T08:50:46Z</time>
      </trkpt>
      <trkpt lat="43.36394" lon="6.61564">
        <ele>345</ele>
      </trkpt>
      <trkpt lat="43.36414" lon="6.61589">
        <ele>356</ele>
        <time>2019-08-16T08:51:45Z</time>
      </trkpt>
      <trkpt lat="43.36487" lon="6.61614">
        <ele>354</ele>
      </trkpt>
      <trkpt lat="43.36538" lon="6.61696">
        <ele>352</ele>
        <time>2019-08-16T08:52:19Z</time>
      </trkpt>
      <trkpt lat="43.36605" lon="6.61765">
        <ele>342</ele>
      </trkpt>
      <trkpt lat="43.3659" lon="6.61845">
        <ele>338.4</ele>
      </trkpt>
      <trkpt lat="43.36606" lon="6.61983">
        <ele>333.9</ele>
      </trkpt>
      <trkpt lat="43.36622" lon="6.62143">
        <ele>327</ele>
      </trkpt>
      <trkpt lat="43.36584" lon="6.62178">
        <ele>323</ele>
      </trkpt>
      <trkpt lat="43.36545" lon="6.62177">
        <ele>308.8</ele>
      </trkpt>
      <trkpt lat="43.36666" lon="6.62312">
        <ele>304</ele>
      </trkpt>
      <trkpt lat="43.36695" lon="6.62394">
        <ele>304</ele>
        <time>2019-08-16T08:57:06Z</time>
      </trkpt>
      <trkpt lat="43.36723" lon="6.62586">
        <ele>291</ele>
        <time>2019-08-16T08:57:31Z</time>
      </trkpt>
      <trkpt lat="43.36696" lon="6.62717">
        <ele>272.9</ele>
      </trkpt>
      <trkpt lat="43.3664" lon="6.62732">
        <ele>264.2</ele>
      </trkpt>
      <trkpt lat="43.36596" lon="6.62827">
        <ele>275</ele>
        <time>2019-08-16T08:58:25Z</time>
      </trkpt>
      <trkpt lat="43.36456" lon="6.62795">
        <ele>250</ele>
        <time>2019-08-16T08:58:54Z</time>
      </trkpt>
      <trkpt lat="43.36319" lon="6.62785">
        <ele>234</ele>
        <time>2019-08-16T08:59:29Z</time>
      </trkpt>
      <trkpt lat="43.36187" lon="6.62863">
        <ele>220.3</ele>
      </trkpt>
      <trkpt lat="43.36135" lon="6.62972">
        <ele>203</ele>
      </trkpt>
      <trkpt lat="43.36157" lon="6.63041">
        <ele>215</ele>
        <time>2019-08-16T09:00:19Z</time>
      </trkpt>
      <trkpt lat="43.36067" lon="6.63193">
        <ele>205.8</ele>
      </trkpt>
      <trkpt lat="43.36052" lon="6.63194">
        <ele>206</ele>
      </trkpt>
      <trkpt lat="43.36008" lon="6.63246">
        <ele>210.9</ele>
      </trkpt>
      <trkpt lat="43.36028" lon="6.63462">
        <ele>214.3</ele>
      </trkpt>
      <trkpt lat="43.36019" lon="6.63575">
        <ele>216</ele>
      </trkpt>
      <trkpt lat="43.35995" lon="6.63633">
        <ele>217</ele>
        <time>2019-08-16T09:03:40Z</time>
      </trkpt>
      <trkpt lat="43.35939" lon="6.63688">
        <ele>231.5</ele>
      </trkpt>
      <trkpt lat="43.35993" lon="6.63775">
        <ele>219</ele>
        <time>2019-08-16T09:04:14Z</time>
      </trkpt>
      <trkpt lat="43.36047" lon="6.63868">
        <ele>212</ele>
        <time>2019-08-16T09:04:40Z</time>
      </trkpt>
      <trkpt lat="43.3602" lon="6.64051">
        <ele>210</ele>
        <time>2019-08-16T09:05:08Z</time>
      </trkpt>
      <trkpt lat="43.36083" lon="6.64213">
        <ele>208</ele>
        <time>2019-08-16T09:05:41Z</time>
      </trkpt>
      <trkpt lat="43.35996" lon="6.64426">
        <ele>226.5</ele>
      </trkpt>
      <trkpt lat="43.36005" lon="6.6456">
        <ele>225</ele>
        <time>2019-08-16T09:07:32Z</time>
      </trkpt>
      <trkpt lat="43.35957" lon="6.64661">
        <ele>225</ele>
        <time>2019-08-16T09:08:05Z</time>
      </trkpt>
      <trkpt lat="43.35818" lon="6.64787">
        <ele>220.6</ele>
      </trkpt>
      <trkpt lat="43.35815" lon="6.64854">
        <ele>224</ele>
      </trkpt>
      <trkpt lat="43.3586" lon="6.64988">
        <ele>228</ele>
      </trkpt>
      <trkpt lat="43.35964" lon="6.65032">
        <ele>225</ele>
        <time>2019-08-16T09:09:54Z</time>
      </trkpt>
      <trkpt lat="43.36107" lon="6.65074">
        <ele>225</ele>
        <time>2019-08-16T09:10:18Z</time>
      </trkpt>
      <trkpt lat="43.36167" lon="6.65173">
        <ele>215.8</ele>
      </trkpt>
      <trkpt lat="43.362" lon="6.65253">
        <ele>208.6</ele>
      </trkpt>
      <trkpt lat="43.36158" lon="6.65419">
        <ele>209</ele>
      </trkpt>
      <trkpt lat="43.36192" lon="6.65539">
        <ele>205</ele>
        <time>2019-08-16T09:11:21Z</time>
      </trkpt>
      <trkpt lat="43.36177" lon="6.65635">
        <ele>215.4</ele>
      </trkpt>
      <trkpt lat="43.36223" lon="6.65641">
        <ele>211</ele>
      </trkpt>
      <trkpt lat="43.36247" lon="6.65686">
        <ele>215</ele>
      </trkpt>
      <trkpt lat="43.3628" lon="6.65701">
        <ele>203</ele>
      </trkpt>
      <trkpt lat="43.36353" lon="6.65638">
        <ele>202</ele>
        <time>2019-08-16T09:12:32Z</time>
      </trkpt>
      <trkpt lat="43.36379" lon="6.65646">
        <ele>194</ele>
      </trkpt>
      <trkpt lat="43.36349" lon="6.65716">
        <ele>188</ele>
      </trkpt>
      <trkpt lat="43.36308" lon="6.6578">
        <ele>194.9</ele>
      </trkpt>
      <trkpt lat="43.36324" lon="6.65854">
        <ele>193.1</ele>
      </trkpt>
      <trkpt lat="43.36475" lon="6.65844">
        <ele>194</ele>
        <time>2019-08-16T09:14:49Z</time>
      </trkpt>
      <trkpt lat="43.3653" lon="6.65891">
        <ele>188</ele>
      </trkpt>
      <trkpt lat="43.36563" lon="6.65981">
        <ele>189.3</ele>
      </trkpt>
      <trkpt lat="43.36518" lon="6.66115">
        <ele>197.6</ele>
      </trkpt>
      <trkpt lat="43.36612" lon="6.66108">
        <ele>186</ele>
      </trkpt>
      <trkpt lat="43.3667" lon="6.66191">
        <ele>191</ele>
        <time>2019-08-16T09:16:44Z</time>
      </trkpt>
      <trkpt lat="43.36678" lon="6.66241">
        <ele>188</ele>
      </trkpt>
      <trkpt lat="43.36656" lon="6.66291">
        <ele>197.2</ele>
      </trkpt>
      <trkpt lat="43.36663" lon="6.66493">
        <ele>179.7</ele>
      </trkpt>
      <trkpt lat="43.36668" lon="6.66618">
        <ele>159</ele>
      </trkpt>
      <trkpt lat="43.36649" lon="6.66672">
        <ele>154.5</ele>
      </trkpt>
      <trkpt lat="43.36536" lon="6.66581">
        <ele>171</ele>
        <time>2019-08-16T09:18:53Z</time>
      </trkpt>
      <trkpt lat="43.36503" lon="6.66559">
        <ele>186</ele>
      </trkpt>
      <trkpt lat="43.36501" lon="6.66658">
        <ele>173</ele>
      </trkpt>
      <trkpt lat="43.36522" lon="6.66701">
        <ele>169</ele>
        <time>2019-08-16T09:19:30Z</time>
      </trkpt>
      <trkpt lat="43.36516" lon="6.66767">
        <ele>175.1</ele>
      </trkpt>
      <trkpt lat="43.36576" lon="6.66938">
        <ele>176</ele>
      </trkpt>
      <trkpt lat="43.3657" lon="6.66984">
        <ele>172</ele>
      </trkpt>
      <trkpt lat="43.3653" lon="6.67005">
        <ele>169.2</ele>
      </trkpt>
      <trkpt lat="43.36449" lon="6.67083">
        <ele>177.6</ele>
      </trkpt>
      <trkpt lat="43.36393" lon="6.67259">
        <ele>162</ele>
        <time>2019-08-16T09:22:04Z</time>
      </trkpt>
      <trkpt lat="43.36353" lon="6.67341">
        <ele>157.8</ele>
      </trkpt>
      <trkpt lat="43.36405" lon="6.67368">
        <ele>159</ele>
        <time>2019-08-16T09:27:08Z</time>
      </trkpt>
      <trkpt lat="43.36454" lon="6.67398">
        <ele>156</ele>
      </trkpt>
      <trkpt lat="43.36524" lon="6.67401">
        <ele>143</ele>
      </trkpt>
      <trkpt lat="43.36566" lon="6.6745">
        <ele>153.2</ele>
      </trkpt>
      <trkpt lat="43.36629" lon="6.6742">
        <ele>137.3</ele>
      </trkpt>
      <trkpt lat="43.36696" lon="6.67653">
        <ele>130</ele>
        <time>2019-08-16T09:28:10Z</time>
      </trkpt>
      <trkpt lat="43.36749" lon="6.67688">
        <ele>133.2</ele>
      </trkpt>
      <trkpt lat="43.36767" lon="6.67844">
        <ele>157</ele>
      </trkpt>
      <trkpt lat="43.36765" lon="6.67952">
        <ele>158.2</ele>
      </trkpt>
      <trkpt lat="43.3676" lon="6.67996">
        <ele>155</ele>
      </trkpt>
      <trkpt lat="43.36733" lon="6.68019">
        <ele>158.1</ele>
      </trkpt>
      <trkpt lat="43.36721" lon="6.68033">
        <ele>159.9</ele>
      </trkpt>
      <trkpt lat="43.36762" lon="6.68088">
        <ele>144.9</ele>
      </trkpt>
      <trkpt lat="43.368" lon="6.68155">
        <ele>139.9</ele>
      </trkpt>
      <trkpt lat="43.36861" lon="6.68183">
        <ele>139.6</ele>
      </trkpt>
      <trkpt lat="43.36946" lon="6.68137">
        <ele>158.7</ele>
      </trkpt>
      <trkpt lat="43.36964" lon="6.68256">
        <ele>166</ele>
      </trkpt>
      <trkpt lat="43.36914" lon="6.68334">
        <ele>158.7</ele>
      </trkpt>
      <trkpt lat="43.36946" lon="6.68385">
        <ele>159.7</ele>
      </trkpt>
      <trkpt lat="43.3713" lon="6.68333">
        <ele>194</ele>
      </trkpt>
      <trkpt lat="43.37174" lon="6.68368">
        <ele>189.2</ele>
      </trkpt>
      <trkpt lat="43.37239" lon="6.68519">
        <ele>179.2</ele>
      </trkpt>
      <trkpt lat="43.37281" lon="6.68558">
        <ele>187</ele>
      </trkpt>
      <trkpt lat="43.37363" lon="6.68582">
        <ele>196.4</ele>
      </trkpt>
      <trkpt lat="43.37433" lon="6.68644">
        <ele>202</ele>
      </trkpt>
      <trkpt lat="43.37468" lon="6.68643">
        <ele>206</ele>
      </trkpt>
      <trkpt lat="43.37525" lon="6.68686">
        <ele>208</ele>
      </trkpt>
      <trkpt lat="43.37607" lon="6.68708">
        <ele>219.9</ele>
      </trkpt>
      <trkpt lat="43.37657" lon="6.68805">
        <ele>217</ele>
      </trkpt>
      <trkpt lat="43.37704" lon="6.68917">
        <ele>222.2</ele>
      </trkpt>
      <trkpt lat="43.37714" lon="6.68997">
        <ele>223</ele>
      </trkpt>
      <trkpt lat="43.37739" lon="6.69059">
        <ele>221.9</ele>
      </trkpt>
      <trkpt lat="43.37796" lon="6.69113">
        <ele>227</ele>
      </trkpt>
      <trkpt lat="43.37815" lon="6.69214">
        <ele>223</ele>
      </trkpt>
      <trkpt lat="43.37841" lon="6.69242">
        <ele>231</ele>
      </trkpt>
      <trkpt lat="43.37898" lon="6.69248">
        <ele>235.8</ele>
      </trkpt>
      <trkpt lat="43.37968" lon="6.69299">
        <ele>232</ele>
      </trkpt>
      <trkpt lat="43.37995" lon="6.69311">
        <ele>231</ele>
      </trkpt>
      <trkpt lat="43.38056" lon="6.6924">
        <ele>231</ele>
      </trkpt>
      <trkpt lat="43.38142" lon="6.69194">
        <ele>222</ele>
      </trkpt>
      <trkpt lat="43.3816" lon="6.6914">
        <ele>227.5</ele>
      </trkpt>
      <trkpt lat="43.38184" lon="6.69114">
        <ele>220</ele>
      </trkpt>
      <trkpt lat="43.38297" lon="6.69076">
        <ele>214.7</ele>
      </trkpt>
      <trkpt lat="43.38369" lon="6.69192">
        <ele>195.2</ele>
      </trkpt>
      <trkpt lat="43.38394" lon="6.69173">
        <ele>197</ele>
      </trkpt>
      <trkpt lat="43.38417" lon="6.69135">
        <ele>199</ele>
      </trkpt>
      <trkpt lat="43.38467" lon="6.6911">
        <ele>196.8</ele>
      </trkpt>
      <trkpt lat="43.38536" lon="6.69089">
        <ele>194</ele>
      </trkpt>
      <trkpt lat="43.38596" lon="6.6908">
        <ele>203.7</ele>
      </trkpt>
      <trkpt lat="43.38712" lon="6.69138">
        <ele>209</ele>
      </trkpt>
      <trkpt lat="43.38807" lon="6.69238">
        <ele>199</ele>
      </trkpt>
      <trkpt lat="43.38915" lon="6.69311">
        <ele>181</ele>
      </trkpt>
      <trkpt lat="43.38967" lon="6.69441">
        <ele>153.6</ele>
      </trkpt>
      <trkpt lat="43.39079" lon="6.6954">
        <ele>141</ele>
      </trkpt>
      <trkpt lat="43.39108" lon="6.69642">
        <ele>129.2</ele>
      </trkpt>
      <trkpt lat="43.3907" lon="6.69714">
        <ele>114</ele>
      </trkpt>
      <trkpt lat="43.39033" lon="6.69757">
        <ele>107</ele>
      </trkpt>
      <trkpt lat="43.38995" lon="6.69837">
        <ele>101.9</ele>
      </trkpt>
      <trkpt lat="43.38986" lon="6.69957">
        <ele>93</ele>
      </trkpt>
      <trkpt lat="43.38996" lon="6.7004">
        <ele>90</ele>
      </trkpt>
      <trkpt lat="43.39038" lon="6.70127">
        <ele>85</ele>
      </trkpt>
      <trkpt lat="43.39067" lon="6.70157">
        <ele>82</ele>
      </trkpt>
      <trkpt lat="43.39085" lon="6.70255">
        <ele>75.8</ele>
      </trkpt>
      <trkpt lat="43.39179" lon="6.70406">
        <ele>65</ele>
      </trkpt>
      <trkpt lat="43.39222" lon="6.70508">
        <ele>55</ele>
      </trkpt>
      <trkpt lat="43.39228" lon="6.70576">
        <ele>52</ele>
      </trkpt>
      <trkpt lat="43.39264" lon="6.7066">
        <ele>45.3</ele>
      </trkpt>
      <trkpt lat="43.39299" lon="6.70657">
        <ele>46</ele>
      </trkpt>
      <trkpt lat="43.39326" lon="6.70682">
        <ele>44</ele>
      </trkpt>
      <trkpt lat="43.39384" lon="6.70721">
        <ele>42.7</ele>
      </trkpt>
      <trkpt lat="43.39455" lon="6.70736">
        <ele>43</ele>
      </trkpt>
      <trkpt lat="43.39497" lon="6.7088">
        <ele>33</ele>
      </trkpt>
      <trkpt lat="43.39548" lon="6.71052">
        <ele>24</ele>
      </trkpt>
      <trkpt lat="43.39672" lon="6.71118">
        <ele>13.9</ele>
      </trkpt>
      <trkpt lat="43.39762" lon="6.71249">
        <ele>7.6</ele>
      </trkpt>
      <trkpt lat="43.39947" lon="6.71299">
        <ele>3.5</ele>
      </trkpt>
      <trkpt lat="43.4" lon="6.71612">
        <ele>6.6</ele>
      </trkpt>
      <trkpt lat="43.40103" lon="6.71402">
        <ele>1.2</ele>
      </trkpt>
      <trkpt lat="43.40224" lon="6.71376">
        <ele>2</ele>
      </trkpt>
      <trkpt lat="43.40471" lon="6.71338">
        <ele>2</ele>
      </trkpt>
      <trkpt lat="43.40605" lon="6.7125">
        <ele>2.1</ele>
      </trkpt>
      <trkpt lat="43.40796" lon="6.71301">
        <ele>2.4</ele>
      </trkpt>
      <trkpt lat="43.4081" lon="6.71466">
        <ele>1.7</ele>
      </trkpt>
      <trkpt lat="43.40943" lon="6.71484">
        <ele>2.4</ele>
      </trkpt>
      <trkpt lat="43.40824" lon="6.71915">
        <ele>1.2</ele>
      </trkpt>
      <trkpt lat="43.40729" lon="6.72284">
        <ele>1.3</ele>
      </trkpt>
      <trkpt lat="43.40901" lon="6.72374">
        <ele>2</ele>
      </trkpt>
      <trkpt lat="43.40922" lon="6.72431">
        <ele>3</ele>
      </trkpt>
      <trkpt lat="43.4103" lon="6.72411">
        <ele>2.7</ele>
      </trkpt>
      <trkpt lat="43.4125" lon="6.72545">
        <ele>5.5</ele>
      </trkpt>
      <trkpt lat="43.4147" lon="6.72668">
        <ele>5</ele>
      </trkpt>
      <trkpt lat="43.41661" lon="6.72756">
        <ele>4.1</ele>
      </trkpt>
      <trkpt lat="43.41824" lon="6.72844">
        <ele>3.6</ele>
      </trkpt>
      <trkpt lat="43.41933" lon="6.72844">
        <ele>3</ele>
      </trkpt>
      <trkpt lat="43.41973" lon="6.72977">
        <ele>2.8</ele>
      </trkpt>
      <trkpt lat="43.4215" lon="6.73091">
        <ele>2</ele>
      </trkpt>
      <trkpt lat="43.42249" lon="6.7325">
        <ele>3</ele>
      </trkpt>
      <trkpt lat="43.42299" lon="6.73318">
        <ele>7</ele>
        <time>2019-08-16T11:25:36Z</time>
      </trkpt>
      <trkpt lat="43.4239" lon="6.73472">
        <ele>7</ele>
        <time>2019-08-16T11:26:09Z</time>
      </trkpt>
      <trkpt lat="43.42479" lon="6.73619">
        <ele>8</ele>
        <time>2019-08-16T11:26:43Z</time>
      </trkpt>
      <trkpt lat="43.42483" lon="6.73675">
        <ele>2</ele>
      </trkpt>
      <trkpt lat="43.42409" lon="6.7374">
        <ele>7</ele>
        <time>2019-08-16T11:27:21Z</time>
      </trkpt>
      <trkpt lat="43.42272" lon="6.73784">
        <ele>6</ele>
        <time>2019-08-16T11:27:57Z</time>
      </trkpt>
      <trkpt lat="43.42188" lon="6.73825">
        <ele>6</ele>
        <time>2019-08-16T11:32:57Z</time>
      </trkpt>
      <trkpt lat="43.42057" lon="6.73903">
        <ele>5</ele>
        <time>2019-08-16T11:33:30Z</time>
      </trkpt>
      <trkpt lat="43.41957" lon="6.74041">
        <ele>4</ele>
        <time>2019-08-16T11:34:06Z</time>
      </trkpt>
      <trkpt lat="43.41849" lon="6.74172">
        <ele>2</ele>
        <time>2019-08-16T11:34:41Z</time>
      </trkpt>
      <trkpt lat="43.41741" lon="6.743">
        <ele>1</ele>
        <time>2019-08-16T11:35:19Z</time>
      </trkpt>
      <trkpt lat="43.41766" lon="6.74416">
        <ele>1</ele>
        <time>2019-08-16T11:35:49Z</time>
      </trkpt>
      <trkpt lat="43.41807" lon="6.74561">
        <ele>1</ele>
        <time>2019-08-16T11:36:36Z</time>
      </trkpt>
      <trkpt lat="43.41912" lon="6.7466">
        <ele>1</ele>
        <time>2019-08-16T11:37:25Z</time>
      </trkpt>
      <trkpt lat="43.41991" lon="6.74791">
        <ele>1</ele>
        <time>2019-08-16T11:38:28Z</time>
      </trkpt>
      <trkpt lat="43.42067" lon="6.74621">
        <ele>2</ele>
        <time>2019-08-16T11:39:04Z</time>
      </trkpt>
      <trkpt lat="43.42137" lon="6.74538">
        <ele>2</ele>
        <time>2019-08-16T11:39:26Z</time>
      </trkpt>
      <trkpt lat="43.42261" lon="6.74449">
        <ele>3</ele>
        <time>2019-08-16T11:39:56Z</time>
      </trkpt>
      <trkpt lat="43.42347" lon="6.74605">
        <ele>3</ele>
        <time>2019-08-16T11:40:33Z</time>
      </trkpt>
      <trkpt lat="43.42405" lon="6.74772">
        <ele>3</ele>
        <time>2019-08-16T11:41:04Z</time>
      </trkpt>
      <trkpt lat="43.42341" lon="6.74946">
        <ele>2</ele>
        <time>2019-08-16T11:41:37Z</time>
      </trkpt>
      <trkpt lat="43.42237" lon="6.75075">
        <ele>1</ele>
        <time>2019-08-16T11:42:10Z</time>
      </trkpt>
      <trkpt lat="43.42287" lon="6.7519">
        <ele>1</ele>
        <time>2019-08-16T11:42:32Z</time>
      </trkpt>
      <trkpt lat="43.42289" lon="6.75339">
        <ele>1</ele>
        <time>2019-08-16T11:43:08Z</time>
      </trkpt>
      <trkpt lat="43.42313" lon="6.75485">
        <ele>1</ele>
        <time>2019-08-16T11:43:47Z</time>
      </trkpt>
      <trkpt lat="43.42368" lon="6.75658">
        <ele>1</ele>
        <time>2019-08-16T11:44:24Z</time>
      </trkpt>
      <trkpt lat="43.42415" lon="6.75842">
        <ele>1</ele>
        <time>2019-08-16T11:45:04Z</time>
      </trkpt>
      <trkpt lat="43.42445" lon="6.75968">
        <ele>1</ele>
        <time>2019-08-16T11:45:27Z</time>
      </trkpt>
      <trkpt lat="43.42474" lon="6.76159">
        <ele>1</ele>
        <time>2019-08-16T11:46:00Z</time>
      </trkpt>
      <trkpt lat="43.4245" lon="6.7635">
        <ele>1</ele>
        <time>2019-08-16T11:46:35Z</time>
      </trkpt>
      <trkpt lat="43.42416" lon="6.76521">
        <ele>1</ele>
        <time>2019-08-16T11:47:32Z</time>
      </trkpt>
      <trkpt lat="43.42314" lon="6.76602">
        <ele>1</ele>
        <time>2019-08-16T11:48:14Z</time>
      </trkpt>
      <trkpt lat="43.42257" lon="6.76537">
        <ele>1</ele>
        <time>2019-08-16T11:48:48Z</time>
      </trkpt>
      <trkpt lat="43.42286" lon="6.76391">
        <ele>1</ele>
        <time>2019-08-16T12:29:50Z</time>
      </trkpt>
      <trkpt lat="43.42317" lon="6.76226">
        <time>2019-08-16T12:31:21Z</time>
      </trkpt>
      <trkpt lat="43.42186" lon="6.76123">
        <time>2019-08-16T12:31:56Z</time>
      </trkpt>
      <trkpt lat="43.42051" lon="6.76052">
        <time>2019-08-16T12:32:22Z</time>
      </trkpt>
      <trkpt lat="43.41911" lon="6.75973">
        <time>2019-08-16T12:32:46Z</time>
      </trkpt>
      <trkpt lat="43.41818" lon="6.75928">
        <time>2019-08-16T12:33:02Z</time>
      </trkpt>
      <trkpt lat="43.41673" lon="6.75858">
        <time>2019-08-16T12:33:26Z</time>
      </trkpt>
      <trkpt lat="43.41533" lon="6.75794">
        <time>2019-08-16T12:33:49Z</time>
      </trkpt>
      <trkpt lat="43.41388" lon="6.75727">
        <time>2019-08-16T12:34:13Z</time>
      </trkpt>
      <trkpt lat="43.41249" lon="6.7567">
        <time>2019-08-16T12:34:36Z</time>
      </trkpt>
      <trkpt lat="43.41156" lon="6.75631">
        <time>2019-08-16T12:34:51Z</time>
      </trkpt>
      <trkpt lat="43.41015" lon="6.75583">
        <time>2019-08-16T12:35:14Z</time>
      </trkpt>
      <trkpt lat="43.40879" lon="6.7552">
        <time>2019-08-16T12:35:36Z</time>
      </trkpt>
      <trkpt lat="43.40745" lon="6.75462">
        <time>2019-08-16T12:35:58Z</time>
      </trkpt>
      <trkpt lat="43.40597" lon="6.75413">
        <time>2019-08-16T12:36:22Z</time>
      </trkpt>
      <trkpt lat="43.40509" lon="6.75374">
        <time>2019-08-16T12:36:36Z</time>
      </trkpt>
      <trkpt lat="43.40376" lon="6.75301">
        <time>2019-08-16T12:36:59Z</time>
      </trkpt>
      <trkpt lat="43.40241" lon="6.75236">
        <time>2019-08-16T12:37:21Z</time>
      </trkpt>
      <trkpt lat="43.40107" lon="6.75159">
        <time>2019-08-16T12:37:44Z</time>
      </trkpt>
      <trkpt lat="43.39974" lon="6.75082">
        <time>2019-08-16T12:38:07Z</time>
      </trkpt>
      <trkpt lat="43.39878" lon="6.7504">
        <time>2019-08-16T12:38:23Z</time>
      </trkpt>
      <trkpt lat="43.39732" lon="6.75007">
        <time>2019-08-16T12:38:45Z</time>
      </trkpt>
      <trkpt lat="43.3959" lon="6.74947">
        <time>2019-08-16T12:39:09Z</time>
      </trkpt>
      <trkpt lat="43.39452" lon="6.74857">
        <time>2019-08-16T12:39:33Z</time>
      </trkpt>
      <trkpt lat="43.39319" lon="6.7476">
        <time>2019-08-16T12:39:57Z</time>
      </trkpt>
      <trkpt lat="43.39176" lon="6.74689">
        <time>2019-08-16T12:40:21Z</time>
      </trkpt>
      <trkpt lat="43.39082" lon="6.74644">
        <time>2019-08-16T12:40:37Z</time>
      </trkpt>
      <trkpt lat="43.38941" lon="6.74576">
        <time>2019-08-16T12:41:01Z</time>
      </trkpt>
      <trkpt lat="43.38797" lon="6.74502">
        <time>2019-08-16T12:41:24Z</time>
      </trkpt>
      <trkpt lat="43.38656" lon="6.74439">
        <time>2019-08-16T12:41:47Z</time>
      </trkpt>
      <trkpt lat="43.38514" lon="6.74382">
        <time>2019-08-16T12:42:10Z</time>
      </trkpt>
      <trkpt lat="43.38415" lon="6.74342">
        <time>2019-08-16T12:42:26Z</time>
      </trkpt>
      <trkpt lat="43.38271" lon="6.74283">
        <time>2019-08-16T12:42:50Z</time>
      </trkpt>
      <trkpt lat="43.38123" lon="6.74228">
        <time>2019-08-16T12:43:14Z</time>
      </trkpt>
      <trkpt lat="43.37976" lon="6.74179">
        <time>2019-08-16T12:43:38Z</time>
      </trkpt>
      <trkpt lat="43.3783" lon="6.74123">
        <time>2019-08-16T12:44:02Z</time>
      </trkpt>
      <trkpt lat="43.37737" lon="6.74077">
        <time>2019-08-16T12:44:18Z</time>
      </trkpt>
      <trkpt lat="43.37592" lon="6.74005">
        <time>2019-08-16T12:44:42Z</time>
      </trkpt>
      <trkpt lat="43.37452" lon="6.73942">
        <time>2019-08-16T12:45:05Z</time>
      </trkpt>
      <trkpt lat="43.37305" lon="6.73891">
        <time>2019-08-16T12:45:29Z</time>
      </trkpt>
      <trkpt lat="43.37158" lon="6.73846">
        <time>2019-08-16T12:45:53Z</time>
      </trkpt>
      <trkpt lat="43.3706" lon="6.73823">
        <time>2019-08-16T12:46:09Z</time>
      </trkpt>
      <trkpt lat="43.36912" lon="6.73763">
        <time>2019-08-16T12:46:33Z</time>
      </trkpt>
      <trkpt lat="43.36778" lon="6.73678">
        <time>2019-08-16T12:46:57Z</time>
      </trkpt>
      <trkpt lat="43.36635" lon="6.73605">
        <time>2019-08-16T12:47:21Z</time>
      </trkpt>
      <trkpt lat="43.365" lon="6.73524">
        <time>2019-08-16T12:47:45Z</time>
      </trkpt>
      <trkpt lat="43.36353" lon="6.73446">
        <time>2019-08-16T12:48:09Z</time>
      </trkpt>
      <trkpt lat="43.36254" lon="6.73409">
        <time>2019-08-16T12:48:25Z</time>
      </trkpt>
      <trkpt lat="43.36113" lon="6.73343">
        <time>2019-08-16T12:48:49Z</time>
      </trkpt>
      <trkpt lat="43.35977" lon="6.73252">
        <time>2019-08-16T12:49:13Z</time>
      </trkpt>
      <trkpt lat="43.35837" lon="6.73176">
        <time>2019-08-16T12:49:36Z</time>
      </trkpt>
      <trkpt lat="43.35703" lon="6.73105">
        <time>2019-08-16T12:49:59Z</time>
      </trkpt>
      <trkpt lat="43.35609" lon="6.73059">
        <time>2019-08-16T12:50:15Z</time>
      </trkpt>
      <trkpt lat="43.35465" lon="6.72988">
        <time>2019-08-16T12:50:39Z</time>
      </trkpt>
      <trkpt lat="43.35329" lon="6.72914">
        <time>2019-08-16T12:51:02Z</time>
      </trkpt>
      <trkpt lat="43.35191" lon="6.72838">
        <time>2019-08-16T12:51:26Z</time>
      </trkpt>
      <trkpt lat="43.35054" lon="6.72772">
        <time>2019-08-16T12:51:49Z</time>
      </trkpt>
      <trkpt lat="43.34961" lon="6.7271">
        <time>2019-08-16T12:52:05Z</time>
      </trkpt>
      <trkpt lat="43.34842" lon="6.72594">
        <time>2019-08-16T12:52:29Z</time>
      </trkpt>
      <trkpt lat="43.34707" lon="6.72492">
        <time>2019-08-16T12:52:53Z</time>
      </trkpt>
      <trkpt lat="43.34577" lon="6.72394">
        <time>2019-08-16T12:53:16Z</time>
      </trkpt>
      <trkpt lat="43.34457" lon="6.72278">
        <time>2019-08-16T12:53:40Z</time>
      </trkpt>
      <trkpt lat="43.3438" lon="6.722">
        <time>2019-08-16T12:53:55Z</time>
      </trkpt>
      <trkpt lat="43.34255" lon="6.72084">
        <time>2019-08-16T12:54:19Z</time>
      </trkpt>
      <trkpt lat="43.34122" lon="6.71984">
        <time>2019-08-16T12:54:42Z</time>
      </trkpt>
      <trkpt lat="43.33987" lon="6.71902">
        <time>2019-08-16T12:55:06Z</time>
      </trkpt>
      <trkpt lat="43.33846" lon="6.71835">
        <time>2019-08-16T12:55:30Z</time>
      </trkpt>
      <trkpt lat="43.33714" lon="6.71739">
        <time>2019-08-16T12:55:53Z</time>
      </trkpt>
      <trkpt lat="43.33646" lon="6.71653">
        <time>2019-08-16T12:56:08Z</time>
      </trkpt>
      <trkpt lat="43.33543" lon="6.7152">
        <time>2019-08-16T12:56:30Z</time>
      </trkpt>
      <trkpt lat="43.3342" lon="6.714">
        <time>2019-08-16T12:56:53Z</time>
      </trkpt>
      <trkpt lat="43.33282" lon="6.71305">
        <time>2019-08-16T12:57:17Z</time>
      </trkpt>
      <trkpt lat="43.33146" lon="6.71231">
        <time>2019-08-16T12:57:40Z</time>
      </trkpt>
      <trkpt lat="43.33069" lon="6.71156">
        <time>2019-08-16T12:57:55Z</time>
      </trkpt>
      <trkpt lat="43.3295" lon="6.71031">
        <time>2019-08-16T12:58:19Z</time>
      </trkpt>
      <trkpt lat="43.32824" lon="6.70931">
        <time>2019-08-16T12:58:42Z</time>
      </trkpt>
      <trkpt lat="43.32709" lon="6.70816">
        <time>2019-08-16T12:59:04Z</time>
      </trkpt>
      <trkpt lat="43.32595" lon="6.7068">
        <time>2019-08-16T12:59:28Z</time>
      </trkpt>
      <trkpt lat="43.32522" lon="6.70597">
        <time>2019-08-16T12:59:43Z</time>
      </trkpt>
      <trkpt lat="43.32393" lon="6.70489">
        <time>2019-08-16T13:00:06Z</time>
      </trkpt>
      <trkpt lat="43.32276" lon="6.70377">
        <time>2019-08-16T13:00:29Z</time>
      </trkpt>
      <trkpt lat="43.32144" lon="6.70281">
        <time>2019-08-16T13:00:52Z</time>
      </trkpt>
      <trkpt lat="43.32018" lon="6.70183">
        <time>2019-08-16T13:01:15Z</time>
      </trkpt>
      <trkpt lat="43.31942" lon="6.7011">
        <time>2019-08-16T13:01:30Z</time>
      </trkpt>
      <trkpt lat="43.31819" lon="6.69991">
        <time>2019-08-16T13:01:53Z</time>
      </trkpt>
      <trkpt lat="43.31694" lon="6.69883">
        <time>2019-08-16T13:02:16Z</time>
      </trkpt>
      <trkpt lat="43.31566" lon="6.69778">
        <time>2019-08-16T13:02:39Z</time>
      </trkpt>
      <trkpt lat="43.31443" lon="6.69668">
        <time>2019-08-16T13:03:03Z</time>
      </trkpt>
      <trkpt lat="43.31323" lon="6.69558">
        <time>2019-08-16T13:03:25Z</time>
      </trkpt>
      <trkpt lat="43.31248" lon="6.69481">
        <time>2019-08-16T13:03:41Z</time>
      </trkpt>
      <trkpt lat="43.31125" lon="6.6936">
        <time>2019-08-16T13:04:04Z</time>
      </trkpt>
      <trkpt lat="43.31018" lon="6.69228">
        <time>2019-08-16T13:04:27Z</time>
      </trkpt>
      <trkpt lat="43.30915" lon="6.69074">
        <time>2019-08-16T13:04:51Z</time>
      </trkpt>
      <trkpt lat="43.30822" lon="6.68923">
        <time>2019-08-16T13:05:13Z</time>
      </trkpt>
      <trkpt lat="43.30763" lon="6.68812">
        <time>2019-08-16T13:05:29Z</time>
      </trkpt>
      <trkpt lat="43.30689" lon="6.68652">
        <time>2019-08-16T13:05:50Z</time>
      </trkpt>
      <trkpt lat="43.30612" lon="6.68487">
        <time>2019-08-16T13:06:12Z</time>
      </trkpt>
      <trkpt lat="43.30537" lon="6.68321">
        <time>2019-08-16T13:06:34Z</time>
      </trkpt>
      <trkpt lat="43.30438" lon="6.68165">
        <time>2019-08-16T13:06:57Z</time>
      </trkpt>
      <trkpt lat="43.30371" lon="6.68054">
        <time>2019-08-16T13:07:13Z</time>
      </trkpt>
      <trkpt lat="43.30283" lon="6.67896">
        <time>2019-08-16T13:07:36Z</time>
      </trkpt>
      <trkpt lat="43.30191" lon="6.67734">
        <time>2019-08-16T13:08:00Z</time>
      </trkpt>
      <trkpt lat="43.30094" lon="6.67579">
        <time>2019-08-16T13:08:23Z</time>
      </trkpt>
      <trkpt lat="43.30011" lon="6.67414">
        <time>2019-08-16T13:08:47Z</time>
      </trkpt>
      <trkpt lat="43.29925" lon="6.67244">
        <time>2019-08-16T13:09:10Z</time>
      </trkpt>
      <trkpt lat="43.29871" lon="6.67141">
        <time>2019-08-16T13:09:24Z</time>
      </trkpt>
      <trkpt lat="43.29796" lon="6.66972">
        <time>2019-08-16T13:09:47Z</time>
      </trkpt>
      <trkpt lat="43.29715" lon="6.66812">
        <time>2019-08-16T13:10:09Z</time>
      </trkpt>
      <trkpt lat="43.29639" lon="6.6665">
        <time>2019-08-16T13:10:30Z</time>
      </trkpt>
      <trkpt lat="43.29562" lon="6.66479">
        <time>2019-08-16T13:10:53Z</time>
      </trkpt>
      <trkpt lat="43.29502" lon="6.66366">
        <time>2019-08-16T13:11:09Z</time>
      </trkpt>
      <trkpt lat="43.29414" lon="6.66215">
        <time>2019-08-16T13:11:30Z</time>
      </trkpt>
      <trkpt lat="43.2935" lon="6.66055">
        <time>2019-08-16T13:11:52Z</time>
      </trkpt>
      <trkpt lat="43.29261" lon="6.65887">
        <time>2019-08-16T13:12:15Z</time>
      </trkpt>
      <trkpt lat="43.29187" lon="6.65721">
        <time>2019-08-16T13:12:37Z</time>
      </trkpt>
      <trkpt lat="43.29145" lon="6.65606">
        <time>2019-08-16T13:12:51Z</time>
      </trkpt>
      <trkpt lat="43.29073" lon="6.65431">
        <time>2019-08-16T13:13:14Z</time>
      </trkpt>
      <trkpt lat="43.28976" lon="6.65278">
        <time>2019-08-16T13:13:37Z</time>
      </trkpt>
      <trkpt lat="43.28886" lon="6.6513">
        <time>2019-08-16T13:13:58Z</time>
      </trkpt>
      <trkpt lat="43.28794" lon="6.64994">
        <time>2019-08-16T13:14:19Z</time>
      </trkpt>
      <trkpt lat="43.2873" lon="6.64893">
        <time>2019-08-16T13:14:34Z</time>
      </trkpt>
      <trkpt lat="43.28637" lon="6.64743">
        <time>2019-08-16T13:14:57Z</time>
      </trkpt>
      <trkpt lat="43.28541" lon="6.64604">
        <time>2019-08-16T13:15:18Z</time>
      </trkpt>
      <trkpt lat="43.28452" lon="6.64454">
        <time>2019-08-16T13:15:40Z</time>
      </trkpt>
      <trkpt lat="43.28376" lon="6.64298">
        <time>2019-08-16T13:16:02Z</time>
      </trkpt>
      <trkpt lat="43.28275" lon="6.6416">
        <time>2019-08-16T13:16:24Z</time>
      </trkpt>
      <trkpt lat="43.28196" lon="6.64068">
        <time>2019-08-16T13:16:40Z</time>
      </trkpt>
      <trkpt lat="43.28094" lon="6.6393">
        <time>2019-08-16T13:17:02Z</time>
      </trkpt>
      <trkpt lat="43.2801" lon="6.63769">
        <time>2019-08-16T13:17:25Z</time>
      </trkpt>
      <trkpt lat="43.27931" lon="6.63594">
        <time>2019-08-16T13:17:49Z</time>
      </trkpt>
      <trkpt lat="43.27848" lon="6.63428">
        <time>2019-08-16T13:18:11Z</time>
      </trkpt>
      <trkpt lat="43.278" lon="6.63321">
        <time>2019-08-16T13:18:25Z</time>
      </trkpt>
      <trkpt lat="43.2772" lon="6.63149">
        <time>2019-08-16T13:18:49Z</time>
      </trkpt>
      <trkpt lat="43.27604" lon="6.6302">
        <time>2019-08-16T13:19:11Z</time>
      </trkpt>
      <trkpt lat="43.27468" lon="6.62971">
        <time>2019-08-16T13:19:34Z</time>
      </trkpt>
      <trkpt lat="43.2732" lon="6.62972">
        <time>2019-08-16T13:19:59Z</time>
      </trkpt>
      <trkpt lat="43.27222" lon="6.62982">
        <time>2019-08-16T13:20:20Z</time>
      </trkpt>
      <trkpt lat="43.27101" lon="6.63075">
        <time>2019-08-16T13:20:53Z</time>
      </trkpt>
      <trkpt lat="43.27034" lon="6.6324">
        <ele>2</ele>
        <time>2019-08-16T13:21:49Z</time>
      </trkpt>
      <trkpt lat="43.26993" lon="6.63406">
        <ele>1</ele>
        <time>2019-08-16T13:29:19Z</time>
      </trkpt>
      <trkpt lat="43.26893" lon="6.63375">
        <ele>3</ele>
        <time>2019-08-16T13:30:15Z</time>
      </trkpt>
      <trkpt lat="43.26842" lon="6.63266">
        <ele>4</ele>
        <time>2019-08-16T13:30:39Z</time>
      </trkpt>
      <trkpt lat="43.26772" lon="6.63091">
        <ele>3</ele>
        <time>2019-08-16T13:31:12Z</time>
      </trkpt>
      <trkpt lat="43.2671" lon="6.62916">
        <ele>2</ele>
        <time>2019-08-16T13:31:43Z</time>
      </trkpt>
      <trkpt lat="43.26668" lon="6.62732">
        <ele>4</ele>
        <time>2019-08-16T13:32:14Z</time>
      </trkpt>
      <trkpt lat="43.26586" lon="6.62578">
        <ele>4</ele>
        <time>2019-08-16T13:32:54Z</time>
      </trkpt>
      <trkpt lat="43.26478" lon="6.62444">
        <ele>3</ele>
        <time>2019-08-16T13:33:54Z</time>
      </trkpt>
      <trkpt lat="43.26434" lon="6.62322">
        <ele>3</ele>
        <time>2019-08-16T13:34:21Z</time>
      </trkpt>
      <trkpt lat="43.26411" lon="6.62126">
        <ele>1</ele>
        <time>2019-08-16T13:34:51Z</time>
      </trkpt>
      <trkpt lat="43.26408" lon="6.61932">
        <ele>3</ele>
        <time>2019-08-16T13:35:18Z</time>
      </trkpt>
      <trkpt lat="43.26384" lon="6.61735">
        <ele>6</ele>
        <time>2019-08-16T13:35:50Z</time>
      </trkpt>
      <trkpt lat="43.26356" lon="6.61541">
        <ele>4</ele>
        <time>2019-08-16T13:36:18Z</time>
      </trkpt>
      <trkpt lat="43.2637" lon="6.61407">
        <ele>5</ele>
        <time>2019-08-16T13:36:37Z</time>
      </trkpt>
      <trkpt lat="43.26388" lon="6.61207">
        <ele>5</ele>
        <time>2019-08-16T13:37:05Z</time>
      </trkpt>
      <trkpt lat="43.26344" lon="6.61034">
        <ele>6</ele>
        <time>2019-08-16T13:37:32Z</time>
      </trkpt>
      <trkpt lat="43.26336" lon="6.60838">
        <ele>6</ele>
        <time>2019-08-16T13:38:01Z</time>
      </trkpt>
      <trkpt lat="43.26341" lon="6.60636">
        <ele>10</ele>
        <time>2019-08-16T13:38:31Z</time>
      </trkpt>
      <trkpt lat="43.26296" lon="6.6052">
        <ele>11</ele>
        <time>2019-08-16T13:38:54Z</time>
      </trkpt>
      <trkpt lat="43.26222" lon="6.60358">
        <ele>12</ele>
        <time>2019-08-16T13:39:24Z</time>
      </trkpt>
      <trkpt lat="43.26238" lon="6.60166">
        <ele>10</ele>
        <time>2019-08-16T13:39:48Z</time>
      </trkpt>
      <trkpt lat="43.26242" lon="6.59971">
        <ele>12</ele>
        <time>2019-08-16T13:40:17Z</time>
      </trkpt>
      <trkpt lat="43.26191" lon="6.59782">
        <ele>12</ele>
        <time>2019-08-16T13:40:43Z</time>
      </trkpt>
      <trkpt lat="43.26145" lon="6.59669">
        <ele>10</ele>
        <time>2019-08-16T13:40:58Z</time>
      </trkpt>
      <trkpt lat="43.26072" lon="6.59489">
        <ele>5</ele>
        <time>2019-08-16T13:41:22Z</time>
      </trkpt>
      <trkpt lat="43.26007" lon="6.59319">
        <ele>2</ele>
        <time>2019-08-16T13:41:47Z</time>
      </trkpt>
      <trkpt lat="43.25951" lon="6.5914">
        <ele>4</ele>
        <time>2019-08-16T13:42:16Z</time>
      </trkpt>
      <trkpt lat="43.26025" lon="6.58973">
        <ele>5</ele>
        <time>2019-08-16T13:42:43Z</time>
      </trkpt>
      <trkpt lat="43.26108" lon="6.58798">
        <ele>5</ele>
        <time>2019-08-16T13:43:08Z</time>
      </trkpt>
      <trkpt lat="43.26156" lon="6.58683">
        <ele>5</ele>
        <time>2019-08-16T13:43:25Z</time>
      </trkpt>
      <trkpt lat="43.2627" lon="6.58642">
        <ele>5</ele>
        <time>2019-08-16T13:44:16Z</time>
      </trkpt>
      <trkpt lat="43.26334" lon="6.58554">
        <ele>4</ele>
        <time>2019-08-16T13:44:43Z</time>
      </trkpt>
      <trkpt lat="43.26321" lon="6.58391">
        <ele>4</ele>
        <time>2019-08-16T13:45:14Z</time>
      </trkpt>
      <trkpt lat="43.26412" lon="6.58255">
        <ele>4</ele>
        <time>2019-08-16T13:45:48Z</time>
      </trkpt>
      <trkpt lat="43.26417" lon="6.58127">
        <ele>5</ele>
        <time>2019-08-16T13:46:06Z</time>
      </trkpt>
      <trkpt lat="43.26465" lon="6.57958">
        <ele>5</ele>
        <time>2019-08-16T13:46:36Z</time>
      </trkpt>
      <trkpt lat="43.26496" lon="6.57761">
        <ele>6</ele>
        <time>2019-08-16T13:47:05Z</time>
      </trkpt>
      <trkpt lat="43.26569" lon="6.57603">
        <ele>6</ele>
        <time>2019-08-16T13:47:41Z</time>
      </trkpt>
      <trkpt lat="43.26672" lon="6.57471">
        <ele>5</ele>
        <time>2019-08-16T13:48:11Z</time>
      </trkpt>
      <trkpt lat="43.26762" lon="6.57434">
        <ele>4</ele>
        <time>2019-08-16T13:48:31Z</time>
      </trkpt>
      <trkpt lat="43.26896" lon="6.57379">
        <ele>4</ele>
        <time>2019-08-16T13:49:06Z</time>
      </trkpt>
      <trkpt lat="43.2704" lon="6.57333">
        <ele>4</ele>
        <time>2019-08-16T13:49:37Z</time>
      </trkpt>
      <trkpt lat="43.27188" lon="6.57374">
        <ele>4</ele>
        <time>2019-08-16T13:50:08Z</time>
      </trkpt>
      <trkpt lat="43.27324" lon="6.57436">
        <ele>4</ele>
        <time>2019-08-16T13:50:35Z</time>
      </trkpt>
      <trkpt lat="43.27411" lon="6.57485">
        <ele>3</ele>
        <time>2019-08-16T13:50:57Z</time>
      </trkpt>
      <trkpt lat="43.27551" lon="6.5751">
        <ele>5</ele>
        <time>2019-08-16T13:51:37Z</time>
      </trkpt>
      <trkpt lat="43.27691" lon="6.57562">
        <ele>7</ele>
        <time>2019-08-16T13:52:10Z</time>
      </trkpt>
      <trkpt lat="43.27828" lon="6.57621">
        <ele>8</ele>
        <time>2019-08-16T13:52:40Z</time>
      </trkpt>
      <trkpt lat="43.27928" lon="6.57758">
        <ele>9</ele>
        <time>2019-08-16T13:53:11Z</time>
      </trkpt>
      <trkpt lat="43.2801" lon="6.57923">
        <ele>7</ele>
        <time>2019-08-16T13:53:40Z</time>
      </trkpt>
      <trkpt lat="43.28055" lon="6.58035">
        <ele>6</ele>
        <time>2019-08-16T13:54:00Z</time>
      </trkpt>
      <trkpt lat="43.28103" lon="6.58228">
        <ele>5</ele>
        <time>2019-08-16T13:54:38Z</time>
      </trkpt>
      <trkpt lat="43.2815" lon="6.58417">
        <ele>5</ele>
        <time>2019-08-16T13:55:04Z</time>
      </trkpt>
      <trkpt lat="43.28201" lon="6.58607">
        <ele>6</ele>
        <time>2019-08-16T13:55:32Z</time>
      </trkpt>
      <trkpt lat="43.28183" lon="6.58669">
        <ele>4</ele>
        <time>2019-08-16T13:58:40Z</time>
      </trkpt>
    </trkseg>
  </trk>
</gpx>